createdAt,value
2019-02-25T00:02:46.679Z,4.42
2019-02-25T00:06:49.416Z,4.50
2019-02-25T00:10:52.061Z,4.40
2019-02-25T00:14:54.795Z,4.42
2019-02-25T00:18:57.441Z,4.57
2019-02-25T00:23:00.274Z,4.52
2019-02-25T00:27:02.992Z,4.69
2019-02-25T00:31:05.749Z,4.54
2019-02-25T00:35:08.672Z,4.55
2019-02-25T00:39:12.648Z,4.54
2019-02-25T00:43:16.559Z,4.62
2019-02-25T00:47:19.275Z,4.70
2019-02-25T00:51:22.031Z,4.59
2019-02-25T00:55:24.686Z,4.39
2019-02-25T00:59:27.216Z,4.45
2019-02-25T01:03:29.975Z,4.37
2019-02-25T01:07:33.025Z,4.38
2019-02-25T01:11:35.771Z,4.26
2019-02-25T01:15:38.400Z,4.26
2019-02-25T01:19:41.161Z,4.31
2019-02-25T01:23:43.988Z,4.39
2019-02-25T01:27:46.767Z,4.22
2019-02-25T01:31:49.105Z,4.31
2019-02-25T01:35:51.798Z,4.13
2019-02-25T01:39:54.606Z,4.24
2019-02-25T01:43:57.570Z,4.32
2019-02-25T01:48:00.165Z,4.18
2019-02-25T01:52:02.957Z,4.04
2019-02-25T01:56:05.594Z,4.19
2019-02-25T02:00:14.755Z,4.22
2019-02-25T02:04:17.630Z,4.20
2019-02-25T02:08:20.502Z,4.03
2019-02-25T02:12:23.215Z,4.12
2019-02-25T02:16:26.196Z,4.16
2019-02-25T02:20:28.724Z,4.16
2019-02-25T02:24:31.377Z,4.03
2019-02-25T02:28:34.398Z,3.83
2019-02-25T02:32:37.069Z,3.94
2019-02-25T02:36:39.590Z,4.09
2019-02-25T02:40:42.230Z,3.97
2019-02-25T02:44:47.130Z,4.04
2019-02-25T02:48:54.187Z,4.13
2019-02-25T02:52:56.915Z,4.08
2019-02-25T02:56:59.654Z,4.06
2019-02-25T03:01:02.278Z,4.02
2019-02-25T03:05:05.231Z,4.12
2019-02-25T03:09:11.221Z,4.03
2019-02-25T03:13:13.918Z,4.01
2019-02-25T03:17:16.735Z,3.83
2019-02-25T03:21:19.494Z,3.91
2019-02-25T03:25:22.126Z,3.90
2019-02-25T03:29:24.961Z,3.87
2019-02-25T03:33:27.489Z,3.96
2019-02-25T03:37:30.165Z,3.97
2019-02-25T03:41:35.014Z,3.95
2019-02-25T03:45:38.520Z,3.89
2019-02-25T03:49:41.210Z,3.94
2019-02-25T03:53:43.970Z,3.78
2019-02-25T03:57:46.738Z,3.81
2019-02-25T04:01:49.829Z,3.86
2019-02-25T04:05:52.522Z,3.63
2019-02-25T04:09:55.384Z,3.71
2019-02-25T04:13:57.943Z,3.70
2019-02-25T04:18:00.569Z,3.78
2019-02-25T04:22:03.167Z,3.75
2019-02-25T04:26:05.925Z,3.51
2019-02-25T04:30:10.494Z,3.61
2019-02-25T04:34:13.577Z,3.62
2019-02-25T04:38:16.223Z,3.66
2019-02-25T04:42:18.992Z,3.69
2019-02-25T04:46:21.887Z,3.64
2019-02-25T04:50:24.631Z,3.47
2019-02-25T04:54:27.412Z,3.51
2019-02-25T04:58:30.165Z,3.53
2019-02-25T05:02:32.831Z,3.58
2019-02-25T05:06:35.639Z,3.54
2019-02-25T05:10:38.250Z,3.56
2019-02-25T05:14:40.907Z,3.57
2019-02-25T05:18:43.400Z,3.77
2019-02-25T05:22:46.181Z,3.67
2019-02-25T05:26:48.791Z,3.73
2019-02-25T05:30:51.512Z,3.66
2019-02-25T05:34:54.128Z,3.77
2019-02-25T05:38:58.648Z,3.69
2019-02-25T05:43:01.531Z,3.88
2019-02-25T05:47:04.381Z,3.63
2019-02-25T05:51:06.989Z,3.67
2019-02-25T05:55:11.172Z,3.86
2019-02-25T05:59:13.892Z,3.79
2019-02-25T06:03:16.522Z,3.66
2019-02-25T06:07:19.131Z,3.67
2019-02-25T06:11:21.939Z,3.91
2019-02-25T06:15:24.650Z,3.91
2019-02-25T06:19:27.360Z,3.81
2019-02-25T06:23:30.000Z,3.85
2019-02-25T06:27:32.767Z,4.02
2019-02-25T06:31:35.401Z,4.15
2019-02-25T06:35:38.096Z,4.25
2019-02-25T06:39:40.443Z,4.22
2019-02-25T06:43:42.904Z,4.18
2019-02-25T06:47:45.242Z,4.28
2019-02-25T06:51:47.888Z,4.15
2019-02-25T06:55:50.310Z,4.22
2019-02-25T06:59:52.873Z,4.27
2019-02-25T07:04:29.589Z,4.26
2019-02-25T07:08:50.845Z,4.20
2019-02-25T07:13:10.829Z,4.27
2019-02-25T07:17:32.127Z,4.24
2019-02-25T07:21:48.150Z,4.19
2019-02-25T07:26:09.328Z,4.33
2019-02-25T07:30:25.986Z,4.47
2019-02-25T07:34:47.282Z,4.59
2019-02-25T07:38:59.145Z,4.57
2019-02-25T07:43:22.981Z,4.84
2019-02-25T07:47:34.839Z,4.88
2019-02-25T07:51:45.720Z,4.92
2019-02-25T07:56:05.803Z,5.03
2019-02-25T08:00:25.615Z,4.97
2019-02-25T08:04:40.590Z,4.99
2019-02-25T08:08:56.762Z,5.11
2019-02-25T08:13:23.954Z,5.13
2019-02-25T08:17:44.324Z,5.24
2019-02-25T08:22:07.584Z,5.23
2019-02-25T08:26:27.418Z,5.28
2019-02-25T08:30:47.466Z,5.33
2019-02-25T08:35:10.536Z,5.36
2019-02-25T08:39:35.550Z,5.46
2019-02-25T08:43:59.862Z,5.54
2019-02-25T08:48:15.529Z,5.63
2019-02-25T08:52:18.292Z,5.63
2019-02-25T08:56:20.896Z,5.65
2019-02-25T09:00:24.217Z,5.70
2019-02-25T09:04:26.880Z,5.79
2019-02-25T09:08:29.382Z,5.82
2019-02-25T09:12:31.733Z,5.81
2019-02-25T09:16:34.290Z,5.95
2019-02-25T09:20:36.696Z,5.91
2019-02-25T09:24:40.858Z,5.96
2019-02-25T09:28:43.425Z,6.09
2019-02-25T09:32:46.501Z,6.05
2019-02-25T09:36:49.105Z,6.01
2019-02-25T09:40:51.878Z,6.17
2019-02-25T09:44:54.584Z,6.22
2019-02-25T09:48:57.241Z,6.18
2019-02-25T09:52:59.978Z,6.26
2019-02-25T09:57:02.675Z,6.23
2019-02-25T10:01:05.520Z,6.29
2019-02-25T10:05:08.474Z,6.38
2019-02-25T10:09:10.907Z,6.35
2019-02-25T10:13:15.529Z,6.39
2019-02-25T10:17:23.865Z,6.43
2019-02-25T10:21:21.908Z,6.47
2019-02-25T10:25:24.288Z,6.50
2019-02-25T10:29:27.712Z,6.46
2019-02-25T10:33:30.069Z,6.48
2019-02-25T10:37:33.895Z,6.55
2019-02-25T10:41:36.790Z,6.59
2019-02-25T10:45:41.150Z,6.55
2019-02-25T10:49:43.756Z,6.59
2019-02-25T10:53:47.825Z,6.65
2019-02-25T10:57:50.236Z,6.69
2019-02-25T11:01:52.745Z,6.75
2019-02-25T11:05:56.365Z,6.76
2019-02-25T11:10:20.247Z,6.75
2019-02-25T11:14:22.583Z,6.84
2019-02-25T11:18:26.668Z,6.90
2019-02-25T11:22:29.141Z,6.93
2019-02-25T11:26:32.928Z,6.91
2019-02-25T11:30:35.857Z,7.04
2019-02-25T11:34:39.918Z,7.06
2019-02-25T11:38:42.551Z,7.01
2019-02-25T11:42:45.001Z,6.92
2019-02-25T11:46:47.408Z,7.02
2019-02-25T11:50:50.037Z,7.12
2019-02-25T11:54:52.398Z,7.01
2019-02-25T11:58:54.811Z,7.06
2019-02-25T12:02:57.270Z,7.18
2019-02-25T12:06:59.848Z,7.29
2019-02-25T12:11:02.201Z,7.37
2019-02-25T12:15:05.431Z,7.33
2019-02-25T12:19:07.919Z,7.41
2019-02-25T12:23:10.325Z,7.37
2019-02-25T12:27:12.640Z,7.37
2019-02-25T12:31:15.069Z,7.35
2019-02-25T12:35:17.618Z,7.19
2019-02-25T12:39:20.883Z,7.07
2019-02-25T12:43:23.252Z,7.03
2019-02-25T12:47:25.666Z,7.13
2019-02-25T12:51:28.001Z,6.92
2019-02-25T12:55:30.606Z,6.81
2019-02-25T12:59:32.997Z,6.62
2019-02-25T13:03:35.461Z,6.55
2019-02-25T13:07:37.865Z,6.54
2019-02-25T13:11:40.510Z,6.40
2019-02-25T13:15:43.067Z,6.33
2019-02-25T13:19:46.346Z,6.42
2019-02-25T13:23:49.985Z,6.43
2019-02-25T13:27:54.402Z,6.43
2019-02-25T13:31:57.236Z,6.37
2019-02-25T13:36:00.148Z,6.34
2019-02-25T13:40:02.949Z,6.26
2019-02-25T13:44:05.384Z,6.18
2019-02-25T13:48:07.734Z,6.17
2019-02-25T13:52:10.229Z,6.13
2019-02-25T13:56:12.672Z,6.02
2019-02-25T14:00:18.131Z,5.93
2019-02-25T14:04:20.552Z,5.81
2019-02-25T14:08:23.178Z,5.78
2019-02-25T14:12:26.651Z,5.65
2019-02-25T14:16:31.160Z,5.64
2019-02-25T14:20:33.993Z,5.63
2019-02-25T14:24:38.553Z,5.55
2019-02-25T14:28:40.617Z,5.46
2019-02-25T14:32:43.216Z,5.25
2019-02-25T14:36:46.358Z,5.16
2019-02-25T14:40:51.453Z,5.04
2019-02-25T14:44:54.749Z,5.04
2019-02-25T14:48:59.086Z,4.96
2019-02-25T14:53:08.076Z,4.93
2019-02-25T14:57:10.380Z,4.82
2019-02-25T15:01:14.859Z,4.80
2019-02-25T15:05:19.851Z,4.77
2019-02-25T15:09:23.568Z,4.73
2019-02-25T15:13:28.205Z,4.75
2019-02-25T15:17:32.939Z,4.69
2019-02-25T15:21:38.944Z,4.58
2019-02-25T15:25:43.061Z,4.55
2019-02-25T15:29:46.817Z,4.43
2019-02-25T15:33:50.292Z,4.19
2019-02-25T15:37:53.444Z,4.26
2019-02-25T15:41:56.968Z,4.12
2019-02-25T15:45:59.540Z,3.91
2019-02-25T15:50:04.426Z,3.88
2019-02-25T15:54:06.741Z,3.98
2019-02-25T15:58:09.395Z,3.82
2019-02-25T16:02:14.160Z,3.95
2019-02-25T16:06:16.389Z,3.93
2019-02-25T16:10:19.226Z,3.82
2019-02-25T16:14:23.382Z,3.72
2019-02-25T16:18:27.850Z,3.69
2019-02-25T16:22:31.615Z,3.73
2019-02-25T16:26:36.040Z,3.66
2019-02-25T16:30:40.486Z,3.69
2019-02-25T16:34:43.120Z,3.64
2019-02-25T16:38:45.473Z,3.66
2019-02-25T16:42:47.955Z,3.68
2019-02-25T16:46:50.855Z,3.55
2019-02-25T16:50:53.435Z,3.71
2019-02-25T16:54:55.911Z,3.59
2019-02-25T16:58:59.016Z,3.53
2019-02-25T17:03:03.732Z,3.52
2019-02-25T17:07:07.401Z,3.41
2019-02-25T17:11:11.225Z,3.34
2019-02-25T17:15:16.156Z,3.28
2019-02-25T17:19:21.871Z,3.09
2019-02-25T17:23:27.695Z,3.11
2019-02-25T17:27:30.807Z,3.08
2019-02-25T17:31:34.522Z,3.03
2019-02-25T17:35:39.011Z,3.00
2019-02-25T17:39:42.145Z,2.95
2019-02-25T17:43:45.140Z,3.01
2019-02-25T17:47:48.256Z,3.03
2019-02-25T17:51:52.972Z,3.04
2019-02-25T17:55:57.236Z,2.93
2019-02-25T17:59:59.535Z,2.92
2019-02-25T18:04:03.983Z,2.87
2019-02-25T18:08:10.562Z,2.70
2019-02-25T18:12:13.528Z,2.75
2019-02-25T18:16:16.803Z,2.80
2019-02-25T18:20:21.441Z,2.72
2019-02-25T18:24:27.006Z,2.74
2019-02-25T18:28:28.534Z,2.72
2019-02-25T18:32:32.834Z,2.69
2019-02-25T18:36:35.739Z,2.70
2019-02-25T18:40:38.755Z,2.62
2019-02-25T18:44:42.772Z,2.60
2019-02-25T18:48:46.772Z,2.71
2019-02-25T18:52:52.354Z,2.64
2019-02-25T18:56:54.851Z,2.55
2019-02-25T19:00:57.375Z,2.52
2019-02-25T19:05:01.605Z,2.57
2019-02-25T19:09:05.748Z,2.59
2019-02-25T19:13:08.573Z,2.57
2019-02-25T19:17:11.189Z,2.62
2019-02-25T19:21:13.686Z,2.60
2019-02-25T19:25:20.908Z,2.54
2019-02-25T19:29:23.800Z,2.55
2019-02-25T19:33:31.268Z,2.47
2019-02-25T19:37:37.701Z,2.49
2019-02-25T19:41:38.619Z,2.48
2019-02-25T19:45:43.079Z,2.49
2019-02-25T19:49:46.555Z,2.47
2019-02-25T19:53:49.349Z,2.45
2019-02-25T19:57:51.851Z,2.35
2019-02-25T20:01:54.280Z,2.38
2019-02-25T20:05:56.748Z,2.42
2019-02-25T20:09:59.500Z,2.39
2019-02-25T20:14:01.926Z,2.38
2019-02-25T20:18:04.367Z,2.38
2019-02-25T20:22:07.800Z,2.39
2019-02-25T20:26:13.344Z,2.35
2019-02-25T20:30:16.665Z,2.44
2019-02-25T20:34:20.695Z,2.54
2019-02-25T20:38:26.830Z,2.54
2019-02-25T20:42:28.583Z,2.58
2019-02-25T20:46:32.743Z,2.58
2019-02-25T20:50:36.248Z,2.74
2019-02-25T20:54:40.915Z,2.82
2019-02-25T20:58:44.602Z,2.88
2019-02-25T21:02:46.977Z,2.83
2019-02-25T21:06:49.352Z,2.77
2019-02-25T21:10:51.792Z,2.75
2019-02-25T21:14:54.173Z,2.64
2019-02-25T21:18:56.592Z,2.51
2019-02-25T21:23:04.851Z,2.35
2019-02-25T21:27:05.868Z,2.24
2019-02-25T21:31:13.586Z,2.15
2019-02-25T21:35:13.467Z,1.99
2019-02-25T21:39:16.967Z,1.99
2019-02-25T21:43:21.099Z,1.99
2019-02-25T21:47:24.666Z,1.96
2019-02-25T21:51:32.619Z,1.97
2019-02-25T21:55:33.163Z,1.97
2019-02-25T21:59:38.567Z,1.91
2019-02-25T22:03:41.779Z,1.90
2019-02-25T22:07:45.128Z,1.89
2019-02-25T22:11:48.939Z,1.83
2019-02-25T22:15:51.585Z,1.87
2019-02-25T22:19:53.981Z,1.82
2019-02-25T22:24:00.855Z,1.83
2019-02-25T22:28:01.671Z,1.82
2019-02-25T22:32:06.401Z,1.78
2019-02-25T22:36:09.548Z,1.72
2019-02-25T22:40:14.473Z,1.71
2019-02-25T22:44:16.818Z,1.67
2019-02-25T22:48:21.561Z,1.60
2019-02-25T22:52:24.760Z,1.59
2019-02-25T22:56:28.090Z,1.59
2019-02-25T23:00:34.111Z,1.55
2019-02-25T23:04:38.440Z,1.55
2019-02-25T23:08:44.251Z,1.48
2019-02-25T23:12:46.932Z,1.47
2019-02-25T23:16:49.517Z,1.44
2019-02-25T23:20:53.125Z,1.40
2019-02-25T23:24:56.213Z,1.40
2019-02-25T23:28:59.842Z,1.38
2019-02-25T23:33:02.577Z,1.32
2019-02-25T23:37:05.906Z,1.28
2019-02-25T23:41:10.074Z,1.27
2019-02-25T23:45:13.458Z,1.24
2019-02-25T23:49:16.640Z,1.18
2019-02-25T23:53:19.129Z,1.14
2019-02-25T23:57:23.940Z,1.13
